createdAt,value
2018-05-13T00:00:08.852Z,1006.79
2018-05-13T00:02:10.378Z,1006.78
2018-05-13T00:04:12.197Z,1006.78
2018-05-13T00:06:13.834Z,1006.73
2018-05-13T00:08:15.376Z,1006.74
2018-05-13T00:10:17.205Z,1006.78
2018-05-13T00:12:18.910Z,1006.78
2018-05-13T00:14:20.622Z,1006.70
2018-05-13T00:16:22.167Z,1006.69
2018-05-13T00:18:23.909Z,1006.66
2018-05-13T00:20:25.598Z,1006.66
2018-05-13T00:22:27.125Z,1006.64
2018-05-13T00:24:29.346Z,1006.61
2018-05-13T00:26:31.047Z,1006.62
2018-05-13T00:28:33.169Z,1006.60
2018-05-13T00:30:35.354Z,1006.66
2018-05-13T00:32:37.112Z,1006.68
2018-05-13T00:34:38.865Z,1006.63
2018-05-13T00:36:40.397Z,1006.62
2018-05-13T00:38:41.945Z,1006.57
2018-05-13T00:40:43.455Z,1006.56
2018-05-13T00:42:45.637Z,1006.56
2018-05-13T00:44:47.456Z,1006.56
2018-05-13T00:46:48.938Z,1006.50
2018-05-13T00:48:50.364Z,1006.48
2018-05-13T00:50:51.926Z,1006.46
2018-05-13T00:52:54.101Z,1006.50
2018-05-13T00:54:55.825Z,1006.48
2018-05-13T00:56:57.567Z,1006.48
2018-05-13T00:58:59.245Z,1006.45
2018-05-13T01:01:00.751Z,1006.48
2018-05-13T01:03:02.194Z,1006.46
2018-05-13T01:05:03.764Z,1006.47
2018-05-13T01:07:05.191Z,1006.48
2018-05-13T01:09:06.655Z,1006.48
2018-05-13T01:11:08.786Z,1006.41
2018-05-13T01:13:10.997Z,1006.42
2018-05-13T01:15:12.795Z,1006.44
2018-05-13T01:17:14.551Z,1006.40
2018-05-13T01:19:16.237Z,1006.42
2018-05-13T01:21:18.491Z,1006.38
2018-05-13T01:23:20.716Z,1006.38
2018-05-13T01:25:22.442Z,1006.36
2018-05-13T01:27:24.607Z,1006.35
2018-05-13T01:29:26.437Z,1006.29
2018-05-13T01:31:28.652Z,1006.28
2018-05-13T01:33:30.890Z,1006.27
2018-05-13T01:35:32.705Z,1006.23
2018-05-13T01:37:34.354Z,1006.25
2018-05-13T01:39:35.985Z,1006.24
2018-05-13T01:41:38.135Z,1006.28
2018-05-13T01:43:39.932Z,1006.21
2018-05-13T01:45:41.795Z,1006.24
2018-05-13T01:47:43.506Z,1006.26
2018-05-13T01:49:45.259Z,1006.29
2018-05-13T01:51:46.830Z,1006.30
2018-05-13T01:53:48.585Z,1006.32
2018-05-13T01:55:50.322Z,1006.32
2018-05-13T01:57:52.034Z,1006.30
2018-05-13T01:59:53.698Z,1006.33
2018-05-13T02:01:55.440Z,1006.30
2018-05-13T02:03:57.188Z,1006.33
2018-05-13T02:05:58.853Z,1006.28
2018-05-13T02:08:00.274Z,1006.24
2018-05-13T02:10:01.955Z,1006.23
2018-05-13T02:12:03.429Z,1006.20
2018-05-13T02:14:05.153Z,1006.22
2018-05-13T02:16:06.965Z,1006.24
2018-05-13T02:18:08.582Z,1006.23
2018-05-13T02:20:10.384Z,1006.15
2018-05-13T02:22:12.097Z,1006.18
2018-05-13T02:24:14.366Z,1006.15
2018-05-13T02:26:16.580Z,1006.09
2018-05-13T02:28:18.053Z,1006.05
2018-05-13T02:30:19.946Z,1006.02
2018-05-13T02:32:21.746Z,1006.04
2018-05-13T02:34:23.405Z,1006.03
2018-05-13T02:36:24.966Z,1006.00
2018-05-13T02:38:26.817Z,1005.93
2018-05-13T02:40:28.997Z,1005.98
2018-05-13T02:42:31.072Z,1005.96
2018-05-13T02:44:32.700Z,1005.93
2018-05-13T02:46:34.411Z,1005.94
2018-05-13T02:48:36.646Z,1005.95
2018-05-13T02:50:38.402Z,1005.94
2018-05-13T02:52:39.963Z,1005.91
2018-05-13T02:54:41.578Z,1005.91
2018-05-13T02:56:43.118Z,1005.91
2018-05-13T02:58:45.368Z,1005.90
2018-05-13T03:00:47.151Z,1005.87
2018-05-13T03:02:48.882Z,1005.81
2018-05-13T03:04:50.599Z,1005.85
2018-05-13T03:06:52.419Z,1005.88
2018-05-13T03:08:53.930Z,1005.84
2018-05-13T03:10:56.078Z,1005.82
2018-05-13T03:12:57.750Z,1005.75
2018-05-13T03:14:59.254Z,1005.74
2018-05-13T03:17:01.511Z,1005.73
2018-05-13T03:19:03.237Z,1005.70
2018-05-13T03:21:04.744Z,1005.77
2018-05-13T03:23:06.470Z,1005.78
2018-05-13T03:25:07.954Z,1005.79
2018-05-13T03:27:10.252Z,1005.79
2018-05-13T03:29:11.949Z,1005.82
2018-05-13T03:31:13.438Z,1005.81
2018-05-13T03:33:15.154Z,1005.81
2018-05-13T03:35:16.958Z,1005.73
2018-05-13T03:37:18.692Z,1005.72
2018-05-13T03:39:21.026Z,1005.74
2018-05-13T03:41:23.189Z,1005.77
2018-05-13T03:43:24.944Z,1005.77
2018-05-13T03:45:26.705Z,1005.82
2018-05-13T03:47:28.371Z,1005.84
2018-05-13T03:49:30.470Z,1005.83
2018-05-13T03:51:32.289Z,1005.78
2018-05-13T03:53:33.836Z,1005.78
2018-05-13T03:55:36.042Z,1005.78
2018-05-13T03:57:37.685Z,1005.79
2018-05-13T03:59:39.218Z,1005.71
2018-05-13T04:01:40.880Z,1005.70
2018-05-13T04:03:42.368Z,1005.71
2018-05-13T04:05:44.145Z,1005.67
2018-05-13T04:07:45.648Z,1005.63
2018-05-13T04:09:47.390Z,1005.56
2018-05-13T04:11:50.215Z,1005.60
2018-05-13T04:13:51.693Z,1005.51
2018-05-13T04:15:53.782Z,1005.53
2018-05-13T04:17:55.831Z,1005.56
2018-05-13T04:19:57.475Z,1005.54
2018-05-13T04:21:58.968Z,1005.52
2018-05-13T04:24:00.667Z,1005.57
2018-05-13T04:26:02.122Z,1005.72
2018-05-13T04:28:03.547Z,1005.70
2018-05-13T04:30:05.193Z,1005.72
2018-05-13T04:32:06.643Z,1005.71
2018-05-13T04:34:08.344Z,1005.80
2018-05-13T04:36:10.066Z,1005.86
2018-05-13T04:38:52.496Z,1005.91
2018-05-13T04:40:53.990Z,1005.99
2018-05-13T04:42:55.413Z,1005.97
2018-05-13T04:44:56.975Z,1006.08
2018-05-13T04:46:58.411Z,1006.14
2018-05-13T04:48:59.880Z,1006.16
2018-05-13T04:51:01.324Z,1006.13
2018-05-13T04:53:03.713Z,1006.15
2018-05-13T04:55:06.081Z,1006.17
2018-05-13T04:57:07.792Z,1006.13
2018-05-13T04:59:10.227Z,1006.23
2018-05-13T05:01:12.487Z,1006.26
2018-05-13T05:03:14.155Z,1006.45
2018-05-13T05:05:15.587Z,1006.51
2018-05-13T05:07:17.166Z,1006.64
2018-05-13T05:09:18.785Z,1006.68
2018-05-13T05:11:21.238Z,1006.76
2018-05-13T05:13:22.917Z,1006.76
2018-05-13T05:15:24.437Z,1006.75
2018-05-13T05:17:25.984Z,1006.77
2018-05-13T05:19:28.368Z,1006.83
2018-05-13T05:21:29.961Z,1006.84
2018-05-13T05:23:31.666Z,1006.88
2018-05-13T05:25:33.865Z,1006.86
2018-05-13T05:27:35.574Z,1006.83
2018-05-13T05:29:37.446Z,1006.65
2018-05-13T05:31:39.225Z,1006.56
2018-05-13T05:33:41.475Z,1006.62
2018-05-13T05:35:43.336Z,1006.63
2018-05-13T05:37:44.816Z,1006.59
2018-05-13T05:39:46.562Z,1006.51
2018-05-13T05:41:48.351Z,1006.42
2018-05-13T05:43:50.536Z,1006.36
2018-05-13T05:45:52.195Z,1006.35
2018-05-13T05:47:53.980Z,1006.38
2018-05-13T05:49:55.530Z,1006.41
2018-05-13T05:51:57.088Z,1006.49
2018-05-13T05:53:58.834Z,1006.54
2018-05-13T05:56:01.190Z,1006.47
2018-05-13T05:58:02.765Z,1006.41
2018-05-13T06:00:04.434Z,1006.42
2018-05-13T06:02:05.939Z,1006.41
2018-05-13T06:04:08.180Z,1006.41
2018-05-13T06:06:10.343Z,1006.43
2018-05-13T06:08:12.189Z,1006.46
2018-05-13T06:10:14.387Z,1006.46
2018-05-13T06:12:16.065Z,1006.43
2018-05-13T06:14:17.747Z,1006.44
2018-05-13T06:16:19.280Z,1006.57
2018-05-13T06:18:21.000Z,1006.60
2018-05-13T06:20:22.673Z,1006.59
2018-05-13T06:22:24.907Z,1006.61
2018-05-13T06:24:26.577Z,1006.54
2018-05-13T06:26:28.174Z,1006.54
2018-05-13T06:28:29.699Z,1006.53
2018-05-13T06:30:31.414Z,1006.49
2018-05-13T06:32:33.641Z,1006.50
2018-05-13T06:34:35.345Z,1006.56
2018-05-13T06:36:36.835Z,1006.50
2018-05-13T06:38:38.324Z,1006.53
2018-05-13T06:40:39.839Z,1006.50
2018-05-13T06:42:41.287Z,1006.57
2018-05-13T06:44:42.728Z,1006.56
2018-05-13T06:46:44.869Z,1006.56
2018-05-13T06:48:46.384Z,1006.54
2018-05-13T06:50:48.459Z,1006.52
2018-05-13T06:52:50.193Z,1006.50
2018-05-13T06:54:51.979Z,1006.50
2018-05-13T06:56:53.443Z,1006.49
2018-05-13T06:58:54.907Z,1006.47
2018-05-13T07:00:57.237Z,1006.53
2018-05-13T07:02:59.436Z,1006.41
2018-05-13T07:05:00.977Z,1006.39
2018-05-13T07:07:02.450Z,1006.35
2018-05-13T07:09:04.192Z,1006.36
2018-05-13T07:11:06.044Z,1006.36
2018-05-13T07:13:07.686Z,1006.37
2018-05-13T07:15:09.202Z,1006.34
2018-05-13T07:17:10.996Z,1006.35
2018-05-13T07:19:12.687Z,1006.29
2018-05-13T07:21:14.214Z,1006.34
2018-05-13T07:23:16.042Z,1006.32
2018-05-13T07:25:18.380Z,1006.29
2018-05-13T07:27:21.506Z,1006.28
2018-05-13T07:29:22.989Z,1006.26
2018-05-13T07:31:24.487Z,1006.26
2018-05-13T07:33:25.997Z,1006.24
2018-05-13T07:35:28.397Z,1006.33
2018-05-13T07:37:30.852Z,1006.34
2018-05-13T07:39:32.664Z,1006.28
2018-05-13T07:41:34.729Z,1006.24
2018-05-13T07:43:36.637Z,1006.26
2018-05-13T07:45:39.830Z,1006.28
2018-05-13T07:47:42.588Z,1006.23
2018-05-13T07:49:44.348Z,1006.29
2018-05-13T07:51:45.968Z,1006.31
2018-05-13T07:53:47.477Z,1006.28
2018-05-13T07:55:49.926Z,1006.28
2018-05-13T07:57:51.800Z,1006.24
2018-05-13T07:59:54.376Z,1006.30
2018-05-13T08:01:56.102Z,1006.29
2018-05-13T08:03:57.760Z,1006.34
2018-05-13T08:05:59.541Z,1006.33
2018-05-13T08:08:01.536Z,1006.30
2018-05-13T08:10:03.177Z,1006.34
2018-05-13T08:12:05.659Z,1006.32
2018-05-13T08:14:08.020Z,1006.37
2018-05-13T08:16:09.678Z,1006.35
2018-05-13T08:18:13.447Z,1006.37
2018-05-13T08:20:15.132Z,1006.37
2018-05-13T08:22:16.855Z,1006.36
2018-05-13T08:24:18.950Z,1006.41
2018-05-13T08:26:20.525Z,1006.48
2018-05-13T08:28:22.275Z,1006.49
2018-05-13T08:30:23.764Z,1006.58
2018-05-13T08:32:25.255Z,1006.59
2018-05-13T08:34:26.957Z,1006.61
2018-05-13T08:36:28.623Z,1006.70
2018-05-13T08:38:30.966Z,1006.66
2018-05-13T08:40:32.332Z,1006.68
2018-05-13T08:42:34.653Z,1006.69
2018-05-13T08:44:36.309Z,1006.72
2018-05-13T08:46:38.138Z,1006.77
2018-05-13T08:48:39.753Z,1006.76
2018-05-13T08:50:41.492Z,1006.78
2018-05-13T08:52:43.030Z,1006.76
2018-05-13T08:54:44.727Z,1006.74
2018-05-13T08:56:47.080Z,1006.68
2018-05-13T08:58:48.868Z,1006.65
2018-05-13T09:00:50.728Z,1006.61
2018-05-13T09:02:52.437Z,1006.58
2018-05-13T09:04:53.884Z,1006.59
2018-05-13T09:06:55.679Z,1006.53
2018-05-13T09:08:57.152Z,1006.51
2018-05-13T09:10:58.984Z,1006.48
2018-05-13T09:13:00.818Z,1006.47
2018-05-13T09:15:03.174Z,1006.44
2018-05-13T09:17:04.830Z,1006.44
2018-05-13T09:19:06.524Z,1006.44
2018-05-13T09:21:08.763Z,1006.39
2018-05-13T09:23:10.272Z,1006.44
2018-05-13T09:25:12.165Z,1006.45
2018-05-13T09:27:13.905Z,1006.46
2018-05-13T09:29:16.240Z,1006.47
2018-05-13T09:31:17.723Z,1006.40
2018-05-13T09:33:20.310Z,1006.43
2018-05-13T09:35:21.826Z,1006.41
2018-05-13T09:37:24.182Z,1006.42
2018-05-13T09:39:25.909Z,1006.42
2018-05-13T09:41:27.386Z,1006.45
2018-05-13T09:43:28.867Z,1006.44
2018-05-13T09:45:30.522Z,1006.43
2018-05-13T09:47:32.287Z,1006.37
2018-05-13T09:49:34.072Z,1006.35
2018-05-13T09:51:35.883Z,1006.34
2018-05-13T09:53:37.382Z,1006.30
2018-05-13T09:55:39.104Z,1006.28
2018-05-13T09:57:40.780Z,1006.27
2018-05-13T09:59:42.266Z,1006.24
2018-05-13T10:01:44.134Z,1006.19
2018-05-13T10:03:45.761Z,1006.21
2018-05-13T10:05:47.534Z,1006.21
2018-05-13T10:07:49.243Z,1006.21
2018-05-13T10:09:50.792Z,1006.19
2018-05-13T10:11:52.416Z,1006.23
2018-05-13T10:13:54.185Z,1006.18
2018-05-13T10:15:56.106Z,1006.15
2018-05-13T10:17:57.874Z,1006.16
2018-05-13T10:19:59.408Z,1006.16
2018-05-13T10:22:00.994Z,1006.15
2018-05-13T10:24:02.529Z,1006.15
2018-05-13T10:26:04.078Z,1006.17
2018-05-13T10:28:05.804Z,1006.22
2018-05-13T10:30:07.292Z,1006.21
2018-05-13T10:32:08.942Z,1006.21
2018-05-13T10:34:10.504Z,1006.24
2018-05-13T10:36:12.535Z,1006.18
2018-05-13T10:38:55.032Z,1006.18
2018-05-13T10:40:56.632Z,1006.22
2018-05-13T10:42:58.141Z,1006.18
2018-05-13T10:44:59.688Z,1006.16
2018-05-13T10:47:01.338Z,1006.13
2018-05-13T10:49:03.116Z,1006.18
2018-05-13T10:51:04.658Z,1006.17
2018-05-13T10:53:06.149Z,1006.24
2018-05-13T10:55:07.637Z,1006.21
2018-05-13T10:57:09.149Z,1006.23
2018-05-13T10:59:10.676Z,1006.20
2018-05-13T11:01:12.654Z,1006.17
2018-05-13T11:03:14.566Z,1006.16
2018-05-13T11:05:16.322Z,1006.13
2018-05-13T11:07:18.176Z,1006.15
2018-05-13T11:09:19.868Z,1006.13
2018-05-13T11:11:22.189Z,1006.18
2018-05-13T11:13:25.020Z,1006.12
2018-05-13T11:15:26.626Z,1006.14
2018-05-13T11:17:28.295Z,1006.08
2018-05-13T11:19:29.987Z,1006.10
2018-05-13T11:21:31.823Z,1006.10
2018-05-13T11:23:33.303Z,1006.06
2018-05-13T11:25:35.004Z,1006.07
2018-05-13T11:27:36.662Z,1006.00
2018-05-13T11:29:38.205Z,1005.97
2018-05-13T11:31:39.716Z,1005.97
2018-05-13T11:33:41.299Z,1005.99
2018-05-13T11:35:42.983Z,1005.97
2018-05-13T11:37:44.756Z,1005.98
2018-05-13T11:39:46.471Z,1005.98
2018-05-13T11:41:48.295Z,1005.99
2018-05-13T11:43:50.053Z,1006.03
2018-05-13T11:45:51.889Z,1006.04
2018-05-13T11:47:53.638Z,1006.03
2018-05-13T11:49:55.472Z,1005.97
2018-05-13T11:51:57.137Z,1005.97
2018-05-13T11:53:58.927Z,1005.95
2018-05-13T11:56:00.654Z,1005.94
2018-05-13T11:58:02.336Z,1005.87
2018-05-13T12:00:04.111Z,1005.88
2018-05-13T12:02:05.797Z,1005.84
2018-05-13T12:04:07.541Z,1005.81
2018-05-13T12:06:09.093Z,1005.79
2018-05-13T12:08:10.921Z,1005.77
2018-05-13T12:10:12.704Z,1005.79
2018-05-13T12:12:14.544Z,1005.76
2018-05-13T12:14:16.304Z,1005.78
2018-05-13T12:16:17.796Z,1005.70
2018-05-13T12:18:19.510Z,1005.71
2018-05-13T12:20:21.456Z,1005.74
2018-05-13T12:22:23.173Z,1005.67
2018-05-13T12:24:24.974Z,1005.66
2018-05-13T12:26:26.739Z,1005.60
2018-05-13T12:28:28.570Z,1005.58
2018-05-13T12:30:30.093Z,1005.57
2018-05-13T12:32:31.774Z,1005.56
2018-05-13T12:34:33.476Z,1005.63
2018-05-13T12:36:35.240Z,1005.58
2018-05-13T12:38:37.140Z,1005.62
2018-05-13T12:40:38.939Z,1005.56
2018-05-13T12:42:40.702Z,1005.52
2018-05-13T12:44:42.254Z,1005.49
2018-05-13T12:46:43.742Z,1005.57
2018-05-13T12:48:45.254Z,1005.63
2018-05-13T12:50:46.772Z,1005.65
2018-05-13T12:52:48.685Z,1005.67
2018-05-13T12:54:51.204Z,1005.74
2018-05-13T12:56:53.674Z,1005.78
2018-05-13T12:58:55.183Z,1005.82
2018-05-13T13:00:56.848Z,1005.79
2018-05-13T13:02:58.668Z,1005.82
2018-05-13T13:05:00.394Z,1005.83
2018-05-13T13:07:01.850Z,1005.77
2018-05-13T13:09:03.607Z,1005.77
2018-05-13T13:11:05.279Z,1005.70
2018-05-13T13:13:07.070Z,1005.61
2018-05-13T13:15:08.898Z,1005.70
2018-05-13T13:17:11.560Z,1005.67
2018-05-13T13:19:13.216Z,1005.69
2018-05-13T13:21:15.057Z,1005.71
2018-05-13T13:23:16.972Z,1005.75
2018-05-13T13:25:19.040Z,1005.77
2018-05-13T13:27:20.810Z,1005.75
2018-05-13T13:29:22.559Z,1005.63
2018-05-13T13:31:24.951Z,1005.54
2018-05-13T13:33:26.535Z,1005.50
2018-05-13T13:35:28.219Z,1005.59
2018-05-13T13:37:29.777Z,1005.79
2018-05-13T13:39:31.331Z,1005.89
2018-05-13T13:41:33.217Z,1005.92
2018-05-13T13:43:34.628Z,1005.90
2018-05-13T13:45:36.616Z,1005.83
2018-05-13T13:47:38.825Z,1005.91
2018-05-13T13:49:40.575Z,1006.03
2018-05-13T13:51:42.215Z,1006.12
2018-05-13T13:53:43.771Z,1006.03
2018-05-13T13:55:45.624Z,1006.24
2018-05-13T13:57:47.455Z,1006.24
2018-05-13T13:59:49.153Z,1006.34
2018-05-13T14:01:50.794Z,1006.51
2018-05-13T14:03:52.606Z,1006.67
2018-05-13T14:05:54.083Z,1007.03
2018-05-13T14:07:55.835Z,1007.24
2018-05-13T14:09:57.672Z,1007.42
2018-05-13T14:11:59.453Z,1007.47
2018-05-13T14:14:01.778Z,1007.46
2018-05-13T14:16:04.127Z,1007.40
2018-05-13T14:18:06.465Z,1007.30
2018-05-13T14:20:08.091Z,1007.13
2018-05-13T14:22:10.197Z,1007.05
2018-05-13T14:24:11.754Z,1007.12
2018-05-13T14:26:13.246Z,1007.14
2018-05-13T14:28:14.927Z,1007.18
2018-05-13T14:30:17.061Z,1007.11
2018-05-13T14:32:18.784Z,1007.05
2018-05-13T14:34:20.486Z,1007.10
2018-05-13T14:36:22.310Z,1007.12
2018-05-13T14:38:23.986Z,1007.13
2018-05-13T14:40:25.755Z,1007.15
2018-05-13T14:42:27.528Z,1007.08
2018-05-13T14:44:29.205Z,1007.05
2018-05-13T14:46:30.896Z,1006.96
2018-05-13T14:48:32.692Z,1006.90
2018-05-13T14:50:34.407Z,1006.86
2018-05-13T14:52:36.106Z,1006.80
2018-05-13T14:54:37.867Z,1006.75
2018-05-13T14:56:39.540Z,1006.81
2018-05-13T14:58:41.326Z,1006.83
2018-05-13T15:00:43.031Z,1006.87
2018-05-13T15:02:44.994Z,1006.97
2018-05-13T15:04:46.564Z,1007.07
2018-05-13T15:06:48.193Z,1007.11
2018-05-13T15:08:50.973Z,1007.11
2018-05-13T15:10:52.874Z,1007.09
2018-05-13T15:12:54.580Z,1007.11
2018-05-13T15:14:56.698Z,1007.12
2018-05-13T15:16:58.735Z,1007.09
2018-05-13T15:19:00.468Z,1007.08
2018-05-13T15:21:01.941Z,1007.14
2018-05-13T15:23:03.704Z,1007.14
2018-05-13T15:25:05.990Z,1007.27
2018-05-13T15:27:07.406Z,1007.37
2018-05-13T15:29:09.748Z,1007.46
2018-05-13T15:31:12.005Z,1007.51
2018-05-13T15:33:13.731Z,1007.53
2018-05-13T15:35:15.542Z,1007.58
2018-05-13T15:37:17.029Z,1007.58
2018-05-13T15:39:19.258Z,1007.55
2018-05-13T15:41:20.970Z,1007.60
2018-05-13T15:43:22.474Z,1007.66
2018-05-13T15:45:24.723Z,1007.75
2018-05-13T15:47:26.184Z,1007.86
2018-05-13T15:49:27.854Z,1007.99
2018-05-13T15:51:30.280Z,1008.01
2018-05-13T15:53:32.083Z,1007.96
2018-05-13T15:55:34.512Z,1007.89
2018-05-13T15:57:36.739Z,1007.85
2018-05-13T15:59:38.406Z,1007.84
2018-05-13T16:01:41.700Z,1007.89
2018-05-13T16:03:44.079Z,1007.91
2018-05-13T16:05:46.346Z,1007.94
2018-05-13T16:07:48.690Z,1007.95
2018-05-13T16:09:50.441Z,1008.13
2018-05-13T16:11:52.758Z,1008.20
2018-05-13T16:13:55.290Z,1008.16
2018-05-13T16:15:57.627Z,1008.09
2018-05-13T16:17:59.373Z,1008.01
2018-05-13T16:20:01.197Z,1007.96
2018-05-13T16:22:02.987Z,1007.93
2018-05-13T16:24:04.488Z,1007.89
2018-05-13T16:26:06.841Z,1007.83
2018-05-13T16:28:08.548Z,1007.78
2018-05-13T16:30:10.943Z,1007.70
2018-05-13T16:32:12.653Z,1007.59
2018-05-13T16:34:14.396Z,1007.57
2018-05-13T16:36:16.048Z,1007.45
2018-05-13T16:38:58.765Z,1007.44
2018-05-13T16:41:00.158Z,1007.38
2018-05-13T16:43:02.523Z,1007.31
2018-05-13T16:45:03.946Z,1007.16
2018-05-13T16:47:05.373Z,1007.10
2018-05-13T16:49:07.729Z,1007.01
2018-05-13T16:51:09.911Z,1006.91
2018-05-13T16:53:11.666Z,1006.87
2018-05-13T16:55:12.978Z,1006.75
2018-05-13T16:57:14.521Z,1006.65
2018-05-13T16:59:17.016Z,1006.56
2018-05-13T17:01:19.322Z,1006.43
2018-05-13T17:03:21.487Z,1006.38
2018-05-13T17:05:23.053Z,1006.37
2018-05-13T17:07:24.485Z,1006.34
2018-05-13T17:09:26.305Z,1006.35
2018-05-13T17:11:27.624Z,1006.31
2018-05-13T17:13:30.060Z,1006.22
2018-05-13T17:15:31.764Z,1006.15
2018-05-13T17:17:33.476Z,1006.14
2018-05-13T17:19:35.507Z,1006.13
2018-05-13T17:21:37.091Z,1006.12
2018-05-13T17:23:38.953Z,1006.11
2018-05-13T17:25:41.129Z,1006.11
2018-05-13T17:27:42.639Z,1006.12
2018-05-13T17:29:44.378Z,1006.10
2018-05-13T17:31:46.044Z,1006.07
2018-05-13T17:33:47.557Z,1006.14
2018-05-13T17:35:49.142Z,1006.18
2018-05-13T17:37:50.843Z,1006.21
2018-05-13T17:39:52.596Z,1006.27
2018-05-13T17:41:54.347Z,1006.32
2018-05-13T17:43:56.124Z,1006.33
2018-05-13T17:45:57.630Z,1006.31
2018-05-13T17:47:59.127Z,1006.30
2018-05-13T17:50:00.740Z,1006.39
2018-05-13T17:52:02.877Z,1006.56
2018-05-13T17:54:04.578Z,1006.77
2018-05-13T17:56:06.245Z,1006.89
2018-05-13T17:58:07.902Z,1006.91
2018-05-13T18:00:09.698Z,1006.90
2018-05-13T18:02:12.193Z,1007.01
2018-05-13T18:04:13.671Z,1007.23
2018-05-13T18:06:15.496Z,1007.40
2018-05-13T18:08:17.239Z,1007.39
2018-05-13T18:10:19.014Z,1007.41
2018-05-13T18:12:20.515Z,1007.41
2018-05-13T18:14:22.018Z,1007.34
2018-05-13T18:16:23.705Z,1007.31
2018-05-13T18:18:25.498Z,1007.30
2018-05-13T18:20:27.266Z,1007.33
2018-05-13T18:22:29.177Z,1007.30
2018-05-13T18:24:30.917Z,1007.31
2018-05-13T18:26:32.359Z,1007.24
2018-05-13T18:28:34.129Z,1007.20
2018-05-13T18:30:35.636Z,1007.19
2018-05-13T18:32:37.244Z,1007.11
2018-05-13T18:34:38.928Z,1006.96
2018-05-13T18:36:40.418Z,1006.97
2018-05-13T18:38:42.728Z,1007.01
2018-05-13T18:40:44.418Z,1006.97
2018-05-13T18:42:46.279Z,1006.96
2018-05-13T18:44:47.820Z,1006.95
2018-05-13T18:46:49.430Z,1006.97
2018-05-13T18:48:51.854Z,1006.98
2018-05-13T18:50:53.287Z,1006.95
2018-05-13T18:52:55.012Z,1006.92
2018-05-13T18:54:56.560Z,1006.93
2018-05-13T18:56:58.052Z,1006.90
2018-05-13T18:58:59.799Z,1006.89
2018-05-13T19:01:01.406Z,1006.94
2018-05-13T19:03:03.840Z,1007.02
2018-05-13T19:05:05.412Z,1007.03
2018-05-13T19:07:07.104Z,1007.05
2018-05-13T19:09:08.910Z,1007.08
2018-05-13T19:11:10.439Z,1007.20
2018-05-13T19:13:11.932Z,1007.23
2018-05-13T19:15:14.417Z,1007.25
2018-05-13T19:17:16.723Z,1007.26
2018-05-13T19:19:18.934Z,1007.24
2018-05-13T19:21:21.131Z,1007.34
2018-05-13T19:23:22.932Z,1007.43
2018-05-13T19:25:24.406Z,1007.42
2018-05-13T19:27:26.795Z,1007.57
2018-05-13T19:29:28.597Z,1007.72
2018-05-13T19:31:30.460Z,1007.76
2018-05-13T19:33:32.138Z,1007.75
2018-05-13T19:35:34.455Z,1007.73
2018-05-13T19:37:36.706Z,1007.76
2018-05-13T19:39:38.471Z,1007.78
2018-05-13T19:41:40.118Z,1007.81
2018-05-13T19:43:41.796Z,1007.84
2018-05-13T19:45:43.297Z,1007.85
2018-05-13T19:47:44.730Z,1007.83
2018-05-13T19:49:46.161Z,1007.83
2018-05-13T19:51:47.881Z,1007.82
2018-05-13T19:53:49.403Z,1007.74
2018-05-13T19:55:51.795Z,1007.71
2018-05-13T19:57:53.547Z,1007.70
2018-05-13T19:59:55.037Z,1007.62
2018-05-13T20:01:56.457Z,1007.49
2018-05-13T20:03:57.967Z,1007.50
2018-05-13T20:06:00.589Z,1007.74
2018-05-13T20:08:02.082Z,1007.92
2018-05-13T20:10:03.963Z,1008.08
2018-05-13T20:12:05.754Z,1008.25
2018-05-13T20:14:07.389Z,1008.31
2018-05-13T20:16:09.062Z,1008.20
2018-05-13T20:18:10.695Z,1008.15
2018-05-13T20:20:13.323Z,1008.10
2018-05-13T20:22:15.792Z,1008.14
2018-05-13T20:24:17.319Z,1008.06
2018-05-13T20:26:19.804Z,1008.03
2018-05-13T20:28:22.379Z,1007.95
2018-05-13T20:30:23.962Z,1007.94
2018-05-13T20:32:25.723Z,1008.04
2018-05-13T20:34:27.532Z,1008.06
2018-05-13T20:36:29.317Z,1008.06
2018-05-13T20:38:31.002Z,1008.02
2018-05-13T20:40:32.694Z,1007.90
2018-05-13T20:42:34.271Z,1007.85
2018-05-13T20:44:35.740Z,1007.79
2018-05-13T20:46:38.099Z,1007.76
2018-05-13T20:48:39.776Z,1007.74
2018-05-13T20:50:41.291Z,1007.80
2018-05-13T20:52:43.014Z,1007.84
2018-05-13T20:54:44.669Z,1008.02
2018-05-13T20:56:46.394Z,1008.06
2018-05-13T20:58:48.746Z,1008.04
2018-05-13T21:00:50.471Z,1008.16
2018-05-13T21:02:53.028Z,1008.16
2018-05-13T21:04:54.574Z,1008.02
2018-05-13T21:06:56.314Z,1007.94
2018-05-13T21:08:57.818Z,1007.99
2018-05-13T21:10:59.549Z,1007.88
2018-05-13T21:13:02.080Z,1007.79
2018-05-13T21:15:03.732Z,1007.81
2018-05-13T21:17:05.203Z,1007.85
2018-05-13T21:19:07.607Z,1007.91
2018-05-13T21:21:09.982Z,1007.89
2018-05-13T21:23:11.790Z,1007.84
2018-05-13T21:25:13.305Z,1007.87
2018-05-13T21:27:14.962Z,1007.89
2018-05-13T21:29:16.697Z,1007.93
2018-05-13T21:31:18.542Z,1008.03
2018-05-13T21:33:20.327Z,1008.01
2018-05-13T21:35:22.151Z,1007.99
2018-05-13T21:37:23.965Z,1007.83
2018-05-13T21:39:26.520Z,1007.75
2018-05-13T21:41:28.214Z,1007.79
2018-05-13T21:43:29.912Z,1007.84
2018-05-13T21:45:31.540Z,1007.83
2018-05-13T21:47:33.299Z,1007.85
2018-05-13T21:49:34.836Z,1007.88
2018-05-13T21:51:36.566Z,1007.95
2018-05-13T21:53:39.050Z,1008.07
2018-05-13T21:55:40.883Z,1008.11
2018-05-13T21:57:43.275Z,1008.09
2018-05-13T21:59:45.745Z,1008.09
2018-05-13T22:01:47.230Z,1008.08
2018-05-13T22:03:49.002Z,1008.07
2018-05-13T22:05:50.865Z,1008.07
2018-05-13T22:07:52.367Z,1008.03
2018-05-13T22:09:54.817Z,1007.98
2018-05-13T22:11:56.296Z,1007.99
2018-05-13T22:13:57.886Z,1008.01
2018-05-13T22:15:59.383Z,1008.01
2018-05-13T22:18:00.875Z,1008.02
2018-05-13T22:20:02.392Z,1008.02
2018-05-13T22:22:04.166Z,1007.97
2018-05-13T22:24:05.902Z,1007.93
2018-05-13T22:26:08.259Z,1007.91
2018-05-13T22:28:10.560Z,1007.91
2018-05-13T22:30:12.794Z,1007.88
2018-05-13T22:32:14.337Z,1007.84
2018-05-13T22:34:15.853Z,1007.81
2018-05-13T22:36:17.629Z,1007.79
2018-05-13T22:39:00.054Z,1007.79
2018-05-13T22:41:01.478Z,1007.77
2018-05-13T22:43:02.988Z,1007.73
2018-05-13T22:45:04.543Z,1007.76
2018-05-13T22:47:06.732Z,1007.74
2018-05-13T22:49:08.099Z,1007.72
2018-05-13T22:51:09.521Z,1007.69
2018-05-13T22:53:11.143Z,1007.69
2018-05-13T22:55:12.753Z,1007.63
2018-05-13T22:57:15.108Z,1007.66
2018-05-13T22:59:16.621Z,1007.62
2018-05-13T23:01:18.305Z,1007.64
2018-05-13T23:03:20.590Z,1007.65
2018-05-13T23:05:22.216Z,1007.66
2018-05-13T23:07:23.692Z,1007.64
2018-05-13T23:09:26.048Z,1007.64
2018-05-13T23:11:27.571Z,1007.64
2018-05-13T23:13:29.835Z,1007.66
2018-05-13T23:15:31.493Z,1007.64
2018-05-13T23:17:32.989Z,1007.59
2018-05-13T23:19:35.393Z,1007.58
2018-05-13T23:21:37.081Z,1007.56
2018-05-13T23:23:38.749Z,1007.53
2018-05-13T23:25:41.043Z,1007.54
2018-05-13T23:27:42.583Z,1007.48
2018-05-13T23:29:44.262Z,1007.53
2018-05-13T23:31:46.777Z,1007.47
2018-05-13T23:33:49.043Z,1007.45
2018-05-13T23:35:50.443Z,1007.48
2018-05-13T23:37:51.961Z,1007.44
2018-05-13T23:39:53.622Z,1007.46
2018-05-13T23:41:55.950Z,1007.50
2018-05-13T23:43:57.530Z,1007.46
2018-05-13T23:45:59.959Z,1007.46
2018-05-13T23:48:01.568Z,1007.51
2018-05-13T23:50:03.268Z,1007.48
2018-05-13T23:52:04.789Z,1007.50
2018-05-13T23:54:06.358Z,1007.53
2018-05-13T23:56:08.152Z,1007.54
2018-05-13T23:58:09.918Z,1007.52
